Tenakee Springs, Alaska
Current Conditions -  °F | °C
As of 2:56 PM on Friday 31 Oct 2014 (Local Time) from PAOH Reporting Station
Broken Clouds Broken Clouds  
Wind Chill: 39°   Ceiling: 3900
Heat Index: 43°   Visibility: 10mi
Dew Point: 39°   Wind: 7mph
Humidity: 85%   Direction: 70°ENE
Pressure: 29.5"   Gusts: NA
Location:  57.78°N, 135.22°W
Report Text: PAOH 312256Z AUTO 07006KT 10SM BKN039 06/04 A2950 RMK AO2 TSNO T00610038 BKN V OVC RAE10 P0000 SLP991 $
Loading
Personal Weather Stations






























Interactive Weather Map
Tropical Storm Tracking
New forecast layout! Learn more

10-Day Weather Forecast

Advertisements
Track Severe Weather on mobile